createdAt,value
2023-04-21T00:01:26.261Z,4.72
2023-04-21T00:03:53.038Z,3.53
2023-04-21T00:06:23.055Z,3.63
2023-04-21T00:08:50.370Z,3.75
2023-04-21T00:11:17.293Z,3.35
2023-04-21T00:13:44.253Z,4.30
2023-04-21T00:16:11.165Z,4.55
2023-04-21T00:18:37.912Z,3.38
2023-04-21T00:21:04.900Z,4.35
2023-04-21T00:23:31.607Z,4.40
2023-04-21T00:25:58.251Z,4.72
2023-04-21T00:28:25.018Z,7.07
2023-04-21T00:30:51.768Z,3.85
2023-04-21T00:33:18.360Z,4.07
2023-04-21T00:35:45.048Z,3.97
2023-04-21T00:38:11.669Z,5.38
2023-04-21T00:40:38.284Z,4.70
2023-04-21T00:43:08.342Z,4.10
2023-04-21T00:45:35.176Z,3.50
2023-04-21T00:48:02.016Z,5.88
2023-04-21T00:50:28.805Z,3.25
2023-04-21T00:52:56.275Z,3.97
2023-04-21T00:55:23.346Z,3.63
2023-04-21T00:57:51.645Z,4.97
2023-04-21T01:00:18.495Z,3.80
2023-04-21T01:02:45.802Z,4.00
2023-04-21T01:05:12.929Z,3.90
2023-04-21T01:07:39.922Z,4.53
2023-04-21T01:10:07.378Z,3.88
2023-04-21T01:12:35.748Z,4.53
2023-04-21T01:15:02.416Z,3.42
2023-04-21T01:17:30.349Z,3.58
2023-04-21T01:19:57.710Z,3.63
2023-04-21T01:22:24.616Z,4.85
2023-04-21T01:24:51.921Z,4.63
2023-04-21T01:27:20.433Z,3.53
2023-04-21T01:29:49.817Z,3.72
2023-04-21T01:32:19.398Z,3.53
2023-04-21T01:34:47.150Z,5.15
2023-04-21T01:37:17.124Z,4.20
2023-04-21T01:39:47.115Z,3.78
2023-04-21T01:42:14.125Z,4.57
2023-04-21T01:44:40.842Z,4.03
2023-04-21T01:47:08.936Z,4.32
2023-04-21T01:49:35.584Z,5.57
2023-04-21T01:52:02.329Z,5.28
2023-04-21T01:54:29.055Z,4.32
2023-04-21T01:56:56.420Z,5.55
2023-04-21T01:59:23.234Z,4.78
2023-04-21T02:01:50.387Z,4.03
2023-04-21T02:04:17.313Z,4.03
2023-04-21T02:06:44.104Z,4.82
2023-04-21T02:09:10.760Z,4.43
2023-04-21T02:11:37.524Z,4.05
2023-04-21T02:14:04.210Z,4.10
2023-04-21T02:16:30.909Z,3.83
2023-04-21T02:18:57.711Z,5.00
2023-04-21T02:21:25.022Z,3.88
2023-04-21T02:23:52.225Z,4.03
2023-04-21T02:26:19.773Z,3.97
2023-04-21T02:28:46.774Z,4.88
2023-04-21T02:31:13.978Z,3.92
2023-04-21T02:33:41.040Z,4.10
2023-04-21T02:36:07.894Z,4.13
2023-04-21T02:38:34.972Z,2.95
2023-04-21T02:41:01.572Z,4.43
2023-04-21T02:43:28.314Z,4.13
2023-04-21T02:45:54.980Z,4.53
2023-04-21T02:48:23.230Z,4.78
2023-04-21T02:50:50.891Z,5.05
2023-04-21T02:53:17.601Z,5.57
2023-04-21T02:55:44.364Z,5.32
2023-04-21T02:58:11.177Z,5.55
2023-04-21T03:00:38.027Z,5.50
2023-04-21T03:03:04.769Z,5.15
2023-04-21T03:05:31.497Z,6.57
2023-04-21T03:07:58.178Z,6.72
2023-04-21T03:10:24.888Z,5.93
2023-04-21T03:12:51.491Z,5.35
2023-04-21T03:15:19.643Z,5.22
2023-04-21T03:17:46.449Z,4.85
2023-04-21T03:20:13.290Z,6.13
2023-04-21T03:22:40.216Z,5.45
2023-04-21T03:25:07.708Z,3.97
2023-04-21T03:27:35.170Z,6.55
2023-04-21T03:30:01.890Z,5.25
2023-04-21T03:32:28.796Z,4.80
2023-04-21T03:34:55.522Z,4.53
2023-04-21T03:37:22.170Z,5.38
2023-04-21T03:39:48.891Z,4.18
2023-04-21T03:42:15.568Z,7.18
2023-04-21T03:44:42.511Z,4.53
2023-04-21T03:47:09.211Z,4.35
2023-04-21T03:49:35.995Z,5.03
2023-04-21T03:52:03.208Z,5.57
2023-04-21T03:54:30.036Z,5.65
2023-04-21T03:56:56.750Z,7.68
2023-04-21T03:59:23.408Z,5.07
2023-04-21T04:01:50.244Z,5.82
2023-04-21T04:04:17.267Z,5.63
2023-04-21T04:06:44.093Z,6.60
2023-04-21T04:09:10.836Z,5.80
2023-04-21T04:11:37.506Z,6.85
2023-04-21T04:14:04.176Z,6.63
2023-04-21T04:16:31.188Z,6.20
2023-04-21T04:18:57.946Z,6.43
2023-04-21T04:21:24.749Z,6.13
2023-04-21T04:23:52.501Z,5.47
2023-04-21T04:26:19.377Z,5.05
2023-04-21T04:28:46.328Z,6.38
2023-04-21T04:31:13.865Z,4.85
2023-04-21T04:33:46.735Z,5.82
2023-04-21T04:36:13.431Z,5.28
2023-04-21T04:38:43.265Z,5.72
2023-04-21T04:41:09.931Z,4.97
2023-04-21T04:43:37.055Z,6.15
2023-04-21T04:46:03.780Z,4.68
2023-04-21T04:48:30.543Z,6.53
2023-04-21T04:50:57.335Z,5.07
2023-04-21T04:53:24.030Z,4.55
2023-04-21T04:55:50.830Z,6.80
2023-04-21T04:58:17.642Z,5.03
2023-04-21T05:00:49.500Z,4.38
2023-04-21T05:03:17.733Z,5.68
2023-04-21T05:05:46.211Z,4.70
2023-04-21T05:08:13.282Z,5.20
2023-04-21T05:10:40.928Z,5.50
2023-04-21T05:13:07.520Z,5.35
2023-04-21T05:15:34.231Z,5.80
2023-04-21T05:18:00.913Z,5.38
2023-04-21T05:20:27.624Z,5.22
2023-04-21T05:22:54.924Z,4.93
2023-04-21T05:25:21.532Z,5.85
2023-04-21T05:27:48.478Z,5.88
2023-04-21T05:30:15.215Z,4.95
2023-04-21T05:32:42.136Z,5.72
2023-04-21T05:35:09.010Z,5.32
2023-04-21T05:37:35.710Z,5.28
2023-04-21T05:40:02.404Z,6.70
2023-04-21T05:42:29.120Z,5.07
2023-04-21T05:44:55.893Z,4.93
2023-04-21T05:47:22.648Z,3.85
2023-04-21T05:49:53.646Z,4.03
2023-04-21T05:52:21.900Z,5.55
2023-04-21T05:54:48.556Z,4.75
2023-04-21T05:57:16.834Z,5.43
2023-04-21T05:59:43.938Z,4.68
2023-04-21T06:02:11.690Z,4.80
2023-04-21T06:04:38.925Z,4.50
2023-04-21T06:07:09.967Z,4.43
2023-04-21T06:09:37.015Z,4.90
2023-04-21T06:12:03.971Z,4.80
2023-04-21T06:14:30.694Z,4.00
2023-04-21T06:16:57.292Z,5.30
2023-04-21T06:19:24.148Z,3.88
2023-04-21T06:21:50.875Z,5.10
2023-04-21T06:24:24.563Z,4.50
2023-04-21T06:26:52.750Z,5.38
2023-04-21T06:29:20.199Z,5.22
2023-04-21T06:31:47.522Z,4.00
2023-04-21T06:34:14.280Z,3.53
2023-04-21T06:36:40.950Z,4.78
2023-04-21T06:39:07.672Z,3.65
2023-04-21T06:41:34.334Z,4.07
2023-04-21T06:44:00.960Z,3.47
2023-04-21T06:46:27.695Z,5.25
2023-04-21T06:48:54.350Z,5.25
2023-04-21T06:51:21.008Z,4.43
2023-04-21T06:53:47.682Z,4.53
2023-04-21T06:56:14.310Z,4.18
2023-04-21T06:58:40.903Z,3.83
2023-04-21T07:01:07.683Z,3.58
2023-04-21T07:03:34.529Z,4.70
2023-04-21T07:06:01.380Z,3.45
2023-04-21T07:08:28.187Z,4.80
2023-04-21T07:10:54.875Z,3.30
2023-04-21T07:13:21.591Z,3.80
2023-04-21T07:15:48.299Z,3.95
2023-04-21T07:18:15.138Z,3.10
2023-04-21T07:20:41.893Z,4.82
2023-04-21T07:23:08.781Z,4.53
2023-04-21T07:25:35.676Z,4.28
2023-04-21T07:28:03.418Z,3.47
2023-04-21T07:30:30.725Z,4.28
2023-04-21T07:32:57.854Z,4.13
2023-04-21T07:35:25.024Z,5.32
2023-04-21T07:37:51.732Z,4.35
2023-04-21T07:40:18.615Z,3.20
2023-04-21T07:42:45.348Z,3.20
2023-04-21T07:45:12.472Z,3.97
2023-04-21T07:47:39.308Z,3.80
2023-04-21T07:50:07.013Z,4.63
2023-04-21T07:52:34.182Z,4.78
2023-04-21T07:55:00.952Z,3.80
2023-04-21T07:57:27.621Z,4.90
2023-04-21T07:59:54.342Z,4.88
2023-04-21T08:02:21.051Z,3.60
2023-04-21T08:04:47.925Z,5.45
2023-04-21T08:07:15.893Z,2.90
2023-04-21T08:09:42.759Z,3.88
2023-04-21T08:12:09.415Z,4.00
2023-04-21T08:14:36.241Z,3.35
2023-04-21T08:17:03.410Z,3.50
2023-04-21T08:19:30.092Z,3.25
2023-04-21T08:21:57.618Z,2.67
2023-04-21T08:24:24.726Z,2.70
2023-04-21T08:26:51.595Z,2.80
2023-04-21T08:29:18.641Z,2.95
2023-04-21T08:31:45.381Z,3.35
2023-04-21T08:34:12.042Z,3.33
2023-04-21T08:36:38.737Z,3.22
2023-04-21T08:39:05.554Z,3.30
2023-04-21T08:41:32.471Z,3.70
2023-04-21T08:43:59.203Z,2.58
2023-04-21T08:46:27.413Z,2.50
2023-04-21T08:48:55.337Z,2.95
2023-04-21T08:51:24.376Z,3.47
2023-04-21T08:53:52.215Z,3.35
2023-04-21T08:56:19.146Z,3.30
2023-04-21T08:58:45.845Z,2.83
2023-04-21T09:01:12.719Z,3.10
2023-04-21T09:03:39.627Z,3.70
2023-04-21T09:06:09.289Z,3.35
2023-04-21T09:08:43.200Z,2.72
2023-04-21T09:11:14.225Z,3.58
2023-04-21T09:13:42.857Z,3.60
2023-04-21T09:16:18.415Z,2.72
2023-04-21T09:18:45.392Z,3.25
2023-04-21T09:21:17.017Z,3.38
2023-04-21T09:23:51.212Z,3.40
2023-04-21T09:26:19.883Z,2.75
2023-04-21T09:28:48.060Z,2.42
2023-04-21T09:31:24.726Z,3.00
2023-04-21T09:33:59.386Z,2.75
2023-04-21T09:36:28.892Z,3.15
2023-04-21T09:41:27.298Z,3.30
2023-04-21T09:43:54.190Z,2.55
2023-04-21T09:46:24.249Z,2.38
2023-04-21T09:48:52.743Z,2.53
2023-04-21T09:51:28.701Z,2.85
2023-04-21T09:54:28.899Z,2.63
2023-04-21T09:56:59.751Z,2.90
2023-04-21T09:59:30.898Z,2.83
2023-04-21T10:01:58.745Z,3.17
2023-04-21T10:04:26.637Z,3.42
2023-04-21T10:06:53.778Z,2.95
2023-04-21T10:09:23.167Z,2.58
2023-04-21T10:11:49.860Z,2.75
2023-04-21T10:14:16.577Z,3.28
2023-04-21T10:16:43.759Z,4.03
2023-04-21T10:19:25.643Z,3.85
2023-04-21T10:21:52.567Z,2.50
2023-04-21T10:24:19.598Z,2.45
2023-04-21T10:26:46.694Z,3.38
2023-04-21T10:29:14.436Z,4.30
2023-04-21T10:31:52.743Z,4.53
2023-04-21T10:34:25.457Z,3.05
2023-04-21T10:36:55.295Z,2.95
2023-04-21T10:39:44.247Z,2.97
2023-04-21T10:42:14.038Z,3.15
2023-04-21T10:44:52.081Z,4.18
2023-04-21T10:47:37.290Z,3.17
2023-04-21T10:50:14.503Z,2.75
2023-04-21T10:52:44.914Z,2.67
2023-04-21T10:55:13.471Z,3.53
2023-04-21T10:57:42.414Z,4.97
2023-04-21T11:00:10.266Z,3.08
2023-04-21T11:02:39.794Z,3.30
2023-04-21T11:05:09.890Z,3.85
2023-04-21T11:07:36.904Z,3.30
2023-04-21T11:10:06.514Z,3.08
2023-04-21T11:12:37.582Z,2.67
2023-04-21T11:15:09.296Z,2.85
2023-04-21T11:17:38.406Z,3.15
2023-04-21T11:20:06.860Z,5.03
2023-04-21T11:22:34.296Z,3.53
2023-04-21T11:25:01.314Z,3.45
2023-04-21T11:27:29.136Z,4.22
2023-04-21T11:29:56.024Z,3.67
2023-04-21T11:32:22.731Z,3.03
2023-04-21T11:34:49.865Z,3.15
2023-04-21T11:37:23.928Z,4.45
2023-04-21T11:39:50.710Z,3.38
2023-04-21T11:42:23.478Z,4.28
2023-04-21T11:44:50.195Z,4.13
2023-04-21T11:47:18.544Z,3.72
2023-04-21T11:49:54.626Z,3.22
2023-04-21T11:52:26.397Z,3.58
2023-04-21T11:55:02.040Z,4.35
2023-04-21T11:57:30.072Z,3.20
2023-04-21T12:00:01.233Z,3.72
2023-04-21T12:02:30.347Z,4.22
2023-04-21T12:05:05.207Z,3.63
2023-04-21T12:07:33.009Z,3.72
2023-04-21T12:10:01.236Z,3.05
2023-04-21T12:12:28.090Z,3.55
2023-04-21T12:14:55.078Z,3.50
2023-04-21T12:17:22.218Z,4.50
2023-04-21T12:19:48.951Z,4.22
2023-04-21T12:22:18.947Z,3.40
2023-04-21T12:24:46.009Z,3.40
2023-04-21T12:27:13.468Z,3.38
2023-04-21T12:29:41.231Z,3.45
2023-04-21T12:32:09.453Z,3.72
2023-04-21T12:34:36.389Z,4.82
2023-04-21T12:37:03.629Z,4.03
2023-04-21T12:39:32.825Z,3.25
2023-04-21T12:42:00.206Z,3.38
2023-04-21T12:44:27.105Z,3.67
2023-04-21T12:46:54.158Z,3.33
2023-04-21T12:49:21.488Z,4.35
2023-04-21T12:51:49.556Z,3.97
2023-04-21T12:54:16.564Z,3.38
2023-04-21T12:56:43.563Z,3.97
2023-04-21T12:59:11.416Z,3.63
2023-04-21T13:01:39.612Z,3.75
2023-04-21T13:04:07.670Z,5.38
2023-04-21T13:06:34.881Z,3.53
2023-04-21T13:09:01.956Z,3.15
2023-04-21T13:11:28.586Z,3.58
2023-04-21T13:13:55.290Z,4.03
2023-04-21T13:16:22.086Z,3.92
2023-04-21T13:18:48.945Z,4.07
2023-04-21T13:21:15.964Z,4.65
2023-04-21T13:23:42.737Z,4.20
2023-04-21T13:26:09.618Z,4.22
2023-04-21T13:28:38.590Z,4.20
2023-04-21T13:31:05.840Z,3.55
2023-04-21T13:33:35.134Z,3.40
2023-04-21T13:36:03.557Z,3.35
2023-04-21T13:38:31.006Z,3.78
2023-04-21T13:40:57.868Z,4.70
2023-04-21T13:43:25.086Z,4.35
2023-04-21T13:45:52.644Z,4.15
2023-04-21T13:48:21.253Z,4.40
2023-04-21T13:50:48.117Z,3.40
2023-04-21T13:53:16.601Z,3.92
2023-04-21T13:55:44.725Z,3.60
2023-04-21T13:58:12.670Z,4.80
2023-04-21T14:00:39.707Z,4.28
2023-04-21T14:03:07.048Z,5.03
2023-04-21T14:05:34.378Z,4.18
2023-04-21T14:08:01.497Z,3.63
2023-04-21T14:10:31.493Z,4.50
2023-04-21T14:12:58.225Z,4.75
2023-04-21T14:15:26.161Z,4.20
2023-04-21T14:17:56.781Z,4.88
2023-04-21T14:20:26.303Z,4.80
2023-04-21T14:22:53.047Z,3.78
2023-04-21T14:25:19.745Z,4.07
2023-04-21T14:27:46.532Z,4.15
2023-04-21T14:30:14.177Z,3.42
2023-04-21T14:32:45.580Z,4.20
2023-04-21T14:35:13.034Z,6.00
2023-04-21T14:37:40.762Z,9.57
2023-04-21T14:40:15.749Z,9.07
2023-04-21T14:45:10.261Z,5.03
2023-04-21T14:47:37.751Z,4.75
2023-04-21T14:50:05.929Z,5.80
2023-04-21T14:52:33.348Z,3.92
2023-04-21T14:55:01.492Z,5.78
2023-04-21T14:57:28.305Z,4.40
2023-04-21T14:59:55.412Z,5.07
2023-04-21T15:02:23.288Z,4.53
2023-04-21T15:04:50.462Z,4.72
2023-04-21T15:07:22.850Z,4.35
2023-04-21T15:09:51.379Z,4.72
2023-04-21T15:12:18.225Z,4.43
2023-04-21T15:14:47.996Z,5.13
2023-04-21T15:17:15.161Z,4.18
2023-04-21T15:19:42.250Z,4.22
2023-04-21T15:22:19.516Z,4.97
2023-04-21T15:24:47.209Z,4.30
2023-04-21T15:27:40.275Z,4.90
2023-04-21T15:30:07.730Z,5.05
2023-04-21T15:32:34.515Z,5.25
2023-04-21T15:35:01.768Z,4.68
2023-04-21T15:37:28.548Z,6.25
2023-04-21T15:39:55.414Z,5.20
2023-04-21T15:42:22.271Z,6.00
2023-04-21T15:44:49.024Z,6.75
2023-04-21T15:47:17.063Z,7.57
2023-04-21T15:49:43.994Z,6.47
2023-04-21T15:52:11.337Z,5.60
2023-04-21T15:54:38.664Z,5.63
2023-04-21T15:57:06.103Z,6.75
2023-04-21T15:59:32.820Z,5.68
2023-04-21T16:02:00.352Z,6.00
2023-04-21T16:04:27.346Z,5.78
2023-04-21T16:06:54.261Z,4.93
2023-04-21T16:09:23.969Z,5.97
2023-04-21T16:11:50.613Z,5.05
2023-04-21T16:14:18.193Z,6.63
2023-04-21T16:16:45.396Z,5.32
2023-04-21T16:19:12.379Z,4.93
2023-04-21T16:21:40.171Z,4.72
2023-04-21T16:24:08.137Z,4.40
2023-04-21T16:26:36.424Z,5.15
2023-04-21T16:29:03.329Z,3.83
2023-04-21T16:31:30.062Z,5.00
2023-04-21T16:34:00.341Z,4.00
2023-04-21T16:36:31.449Z,6.03
2023-04-21T16:38:58.484Z,5.68
2023-04-21T16:41:25.502Z,4.97
2023-04-21T16:43:52.226Z,4.82
2023-04-21T16:46:19.156Z,5.03
2023-04-21T16:48:46.288Z,6.25
2023-04-21T16:51:13.306Z,7.20
2023-04-21T16:53:40.443Z,7.93
2023-04-21T16:56:07.326Z,7.22
2023-04-21T16:58:34.253Z,7.05
2023-04-21T17:01:01.232Z,5.43
2023-04-21T17:03:29.383Z,6.43
2023-04-21T17:05:56.377Z,7.88
2023-04-21T17:08:23.074Z,6.72
2023-04-21T17:10:49.818Z,6.57
2023-04-21T17:13:16.529Z,7.35
2023-04-21T17:15:43.289Z,12.10
2023-04-21T17:18:10.477Z,12.15
2023-04-21T17:20:37.258Z,13.23
2023-04-21T17:23:04.283Z,10.45
2023-04-21T17:25:31.489Z,10.35
2023-04-21T17:27:58.218Z,11.13
2023-04-21T17:30:25.118Z,9.07
2023-04-21T17:33:03.968Z,9.07
2023-04-21T17:35:35.884Z,10.52
2023-04-21T17:38:02.885Z,9.48
2023-04-21T17:40:29.612Z,9.82
2023-04-21T17:42:56.577Z,8.07
2023-04-21T17:45:23.368Z,8.07
2023-04-21T17:47:50.122Z,7.75
2023-04-21T17:50:16.991Z,10.05
2023-04-21T17:52:43.744Z,7.70
2023-04-21T17:55:10.548Z,8.25
2023-04-21T17:57:37.195Z,8.00
2023-04-21T18:00:07.446Z,7.22
2023-04-21T18:02:34.527Z,7.10
2023-04-21T18:05:01.731Z,7.28
2023-04-21T18:07:28.564Z,6.57
2023-04-21T18:09:55.367Z,7.90
2023-04-21T18:12:22.052Z,8.07
2023-04-21T18:14:48.886Z,7.93
2023-04-21T18:17:17.434Z,7.38
2023-04-21T18:19:44.413Z,9.27
2023-04-21T18:22:11.236Z,8.27
2023-04-21T18:24:38.341Z,8.60
2023-04-21T18:27:05.351Z,6.43
2023-04-21T18:29:32.069Z,8.23
2023-04-21T18:31:59.019Z,8.13
2023-04-21T18:34:25.992Z,7.60
2023-04-21T18:36:52.751Z,7.63
2023-04-21T18:39:19.755Z,6.63
2023-04-21T18:41:48.373Z,6.80
2023-04-21T18:44:16.326Z,6.80
2023-04-21T18:46:43.051Z,7.53
2023-04-21T18:49:09.740Z,7.85
2023-04-21T18:51:36.591Z,7.22
2023-04-21T18:54:05.030Z,7.13
2023-04-21T18:56:32.889Z,7.60
2023-04-21T18:58:59.949Z,8.02
2023-04-21T19:01:27.240Z,6.95
2023-04-21T19:03:54.133Z,6.82
2023-04-21T19:06:23.977Z,6.00
2023-04-21T19:08:53.416Z,6.10
2023-04-21T19:11:20.246Z,6.72
2023-04-21T19:13:48.237Z,5.97
2023-04-21T19:16:16.806Z,6.35
2023-04-21T19:18:43.876Z,5.90
2023-04-21T19:21:13.514Z,6.68
2023-04-21T19:23:40.746Z,6.32
2023-04-21T19:26:08.778Z,9.40
2023-04-21T19:28:36.142Z,6.95
2023-04-21T19:31:03.288Z,7.63
2023-04-21T19:33:30.148Z,6.53
2023-04-21T19:35:57.829Z,6.85
2023-04-21T19:38:24.998Z,6.85
2023-04-21T19:40:51.758Z,8.68
2023-04-21T19:43:20.358Z,9.50
2023-04-21T19:45:47.610Z,12.07
2023-04-21T19:48:14.558Z,12.80
2023-04-21T19:50:41.647Z,10.63
2023-04-21T19:53:08.480Z,11.15
2023-04-21T19:55:35.151Z,13.07
2023-04-21T19:58:01.841Z,10.73
2023-04-21T20:00:28.477Z,10.70
2023-04-21T20:02:55.332Z,8.88
2023-04-21T20:05:22.147Z,9.77
2023-04-21T20:07:49.100Z,9.57
2023-04-21T20:10:15.827Z,11.52
2023-04-21T20:12:42.610Z,10.43
2023-04-21T20:15:09.629Z,10.32
2023-04-21T20:17:37.077Z,10.20
2023-04-21T20:20:09.670Z,11.52
2023-04-21T20:22:36.477Z,12.15
2023-04-21T20:25:04.333Z,9.55
2023-04-21T20:27:31.304Z,11.35
2023-04-21T20:29:58.218Z,11.45
2023-04-21T20:32:25.050Z,10.10
2023-04-21T20:34:55.865Z,9.73
2023-04-21T20:37:23.234Z,9.65
2023-04-21T20:39:50.147Z,9.35
2023-04-21T20:42:18.991Z,10.32
2023-04-21T20:44:46.293Z,8.27
2023-04-21T20:47:13.192Z,9.93
2023-04-21T20:49:40.387Z,8.98
2023-04-21T20:52:07.242Z,10.40
2023-04-21T20:54:35.033Z,9.00
2023-04-21T20:57:02.405Z,8.65
2023-04-21T20:59:29.256Z,8.77
2023-04-21T21:01:56.098Z,9.43
2023-04-21T21:04:23.158Z,8.32
2023-04-21T21:06:50.079Z,8.30
2023-04-21T21:09:19.183Z,8.77
2023-04-21T21:11:45.933Z,9.32
2023-04-21T21:14:12.569Z,9.77
2023-04-21T21:16:39.322Z,8.20
2023-04-21T21:19:06.302Z,9.70
2023-04-21T21:21:33.028Z,9.48
2023-04-21T21:24:00.299Z,10.00
2023-04-21T21:26:27.260Z,8.80
2023-04-21T21:28:53.938Z,9.98
2023-04-21T21:31:20.791Z,10.73
2023-04-21T21:33:47.671Z,8.45
2023-04-21T21:36:14.377Z,9.27
2023-04-21T21:38:41.354Z,8.63
2023-04-21T21:41:10.374Z,9.23
2023-04-21T21:43:37.107Z,10.57
2023-04-21T21:46:05.232Z,10.23
2023-04-21T21:48:31.931Z,8.73
2023-04-21T21:50:58.606Z,8.90
2023-04-21T21:53:25.275Z,8.68
2023-04-21T21:55:52.062Z,9.40
2023-04-21T21:58:18.813Z,11.13
2023-04-21T22:00:51.737Z,8.38
2023-04-21T22:03:21.596Z,8.35
2023-04-21T22:05:48.594Z,8.43
2023-04-21T22:08:15.915Z,10.10
2023-04-21T22:10:43.315Z,8.15
2023-04-21T22:13:10.181Z,9.13
2023-04-21T22:15:37.492Z,8.73
2023-04-21T22:18:04.637Z,8.38
2023-04-21T22:20:31.578Z,10.25
2023-04-21T22:22:58.305Z,9.27
2023-04-21T22:25:27.163Z,8.73
2023-04-21T22:27:57.750Z,9.80
2023-04-21T22:30:24.849Z,8.43
2023-04-21T22:32:51.794Z,8.57
2023-04-21T22:35:18.671Z,11.23
2023-04-21T22:37:45.375Z,12.15
2023-04-21T22:40:12.268Z,8.82
2023-04-21T22:42:39.438Z,9.90
2023-04-21T22:45:07.096Z,9.75
2023-04-21T22:47:35.313Z,8.77
2023-04-21T22:50:02.118Z,15.48
2023-04-21T22:52:28.869Z,9.57
2023-04-21T22:54:55.739Z,9.13
2023-04-21T22:57:22.427Z,11.13
2023-04-21T22:59:49.212Z,11.95
2023-04-21T23:02:15.967Z,11.07
2023-04-21T23:04:42.834Z,11.95
2023-04-21T23:07:09.609Z,13.90
2023-04-21T23:09:36.565Z,13.55
2023-04-21T23:12:03.662Z,12.98
2023-04-21T23:14:30.504Z,11.10
2023-04-21T23:16:57.206Z,13.85
2023-04-21T23:19:23.893Z,12.48
2023-04-21T23:21:50.546Z,11.32
2023-04-21T23:24:17.299Z,13.00
2023-04-21T23:26:44.008Z,13.57
2023-04-21T23:29:10.767Z,13.68
2023-04-21T23:31:37.785Z,14.73
2023-04-21T23:34:04.462Z,14.65
2023-04-21T23:36:31.973Z,14.82
2023-04-21T23:38:58.921Z,14.45
2023-04-21T23:41:25.733Z,13.70
2023-04-21T23:43:52.388Z,12.80
2023-04-21T23:46:19.174Z,12.07
2023-04-21T23:48:45.817Z,13.10
2023-04-21T23:51:12.703Z,11.60
2023-04-21T23:53:39.549Z,11.52
2023-04-21T23:56:06.721Z,10.13
2023-04-21T23:58:33.530Z,10.88
